Terminal Aerodrome Forecast
Issued by NWS

Home | Current Version | Previous Version | Text Only | Print | Product List | Glossary On
Versions: 1 2 3 4 5 6 7 8 9 10 11 12 13 14 15 16 17 18
000
FTAK31 PAJN 200500 RRA
TAFAGY
TAF
PAGY 200541Z 2006/2106 04004KT P6SM OVC100
     FM201200 VRB04KT P6SM VCSH BKN050 OVC080
     FM201600 21006KT P6SM -RA BKN030 OVC050
     FM202200 21010KT P6SM -SHRA SCT030 OVC050
      AMD LTD TO CLD VIS AND WIND=

USA.gov is the U.S. government's official web portal to all federal, state and local government web resources and services.